Aurora, Maine
Current Conditions -  °F | °C
As of 10:53 AM on Wednesday 28 Jan 2015 (Local Time) from KBGR Reporting Station
Broken Clouds Broken Clouds  
Wind Chill: -18°   Ceiling: 4000
Heat Index: -8°   Visibility: 8mi
Dew Point: -13°   Wind: 21mph
Humidity: 71%   Direction: 350°N
Pressure: 29.86"   Gusts: 32mph
Location:  44.85°N, 68.33°W
Report Text: KBGR 281553Z 35018G28KT 8SM BKN040 BKN075 M08/M13 A2986 RMK AO2 PK WND 36029/1521 SNE41 SLP116 P0000 T10831128
Loading
Personal Weather Stations






























Interactive Weather Map New forecast layout! Learn more

10-Day Weather Forecast

Advertisements
Track Severe Weather on mobile